createdAt,value
2022-09-08T08:01:38.331Z,15.80
2022-09-08T08:10:23.153Z,15.60
2022-09-08T08:13:05.766Z,15.60
2022-09-08T08:23:35.963Z,15.70
2022-09-08T08:33:29.433Z,15.80
2022-09-08T08:44:37.716Z,15.70
2022-09-08T08:55:30.805Z,15.80
2022-09-08T09:05:50.022Z,15.80
2022-09-08T09:09:17.121Z,15.80
2022-09-08T09:12:37.823Z,15.90
2022-09-08T09:16:07.452Z,15.90
2022-09-08T09:22:59.884Z,16.10
2022-09-08T09:31:32.028Z,16.10
2022-09-08T09:34:52.581Z,16.00
2022-09-08T09:48:55.734Z,16.40
2022-09-08T09:51:52.075Z,16.30
2022-09-08T09:54:58.470Z,16.30
2022-09-08T09:58:19.690Z,16.20
2022-09-08T10:01:27.884Z,16.20
2022-09-08T10:04:19.814Z,16.30
2022-09-08T10:13:39.023Z,16.50
2022-09-08T10:16:33.631Z,16.50
2022-09-08T10:19:29.364Z,16.60
2022-09-08T10:22:55.863Z,16.60
2022-09-08T10:26:17.726Z,16.50
2022-09-08T10:30:12.400Z,16.40
2022-09-08T10:32:55.871Z,16.40
2022-09-08T10:36:09.979Z,16.60
2022-09-08T10:39:06.285Z,16.80
2022-09-08T10:42:20.471Z,16.80
2022-09-08T10:45:35.914Z,16.90
2022-09-08T10:48:41.645Z,16.80
2022-09-08T10:51:41.173Z,16.70
2022-09-08T10:54:44.469Z,16.70
2022-09-08T10:57:48.246Z,16.70
2022-09-08T11:00:35.104Z,16.70
2022-09-08T11:03:26.784Z,16.70
2022-09-08T11:06:08.857Z,16.80
2022-09-08T11:09:13.858Z,17.00
2022-09-08T11:11:56.473Z,17.20
2022-09-08T11:14:58.473Z,17.10
2022-09-08T11:18:10.205Z,17.10
2022-09-08T11:21:19.815Z,17.10
2022-09-08T11:24:32.287Z,17.00
2022-09-08T11:27:12.967Z,17.00
2022-09-08T11:29:45.952Z,17.30
2022-09-08T11:32:16.757Z,17.50
2022-09-08T11:35:15.204Z,17.60
2022-09-08T11:38:29.323Z,17.60
2022-09-08T11:41:11.104Z,17.50
2022-09-08T11:50:44.598Z,17.50
2022-09-08T11:56:52.763Z,17.50
2022-09-08T11:59:32.633Z,17.60
2022-09-08T12:02:47.048Z,17.80
2022-09-08T12:09:11.174Z,18.20
2022-09-08T12:12:24.473Z,18.10
2022-09-08T12:15:17.255Z,17.90
2022-09-08T12:17:53.663Z,17.80
2022-09-08T12:20:48.154Z,17.80
2022-09-08T12:23:19.035Z,17.70
2022-09-08T12:26:05.423Z,17.60
2022-09-08T12:28:55.141Z,17.40
2022-09-08T12:31:59.083Z,17.40
2022-09-08T12:34:56.051Z,17.40
2022-09-08T12:37:41.904Z,17.50
2022-09-08T12:40:46.766Z,17.50
2022-09-08T12:43:23.127Z,17.70
2022-09-08T12:46:19.250Z,17.90
2022-09-08T12:49:06.438Z,18.00
2022-09-08T12:51:35.624Z,18.00
2022-09-08T12:54:28.568Z,18.00
2022-09-08T12:57:11.994Z,17.90
2022-09-08T12:59:52.133Z,17.80
2022-09-08T13:02:46.748Z,17.70
2022-09-08T13:05:37.923Z,17.80
2022-09-08T13:08:06.264Z,17.70
2022-09-08T13:10:38.384Z,17.60
2022-09-08T13:13:17.026Z,17.60
2022-09-08T13:16:06.966Z,17.60
2022-09-08T13:18:58.365Z,17.70
2022-09-08T13:22:03.229Z,17.70
2022-09-08T13:24:32.893Z,17.70
2022-09-08T13:27:09.186Z,17.70
2022-09-08T13:30:22.859Z,17.80
2022-09-08T13:32:56.504Z,17.80
2022-09-08T13:35:43.443Z,17.80
2022-09-08T13:38:37.613Z,17.80
2022-09-08T13:41:12.325Z,17.70
2022-09-08T13:44:08.293Z,17.60
2022-09-08T13:46:48.107Z,17.60
2022-09-08T13:49:23.204Z,17.60
2022-09-08T13:52:10.055Z,17.70
2022-09-08T13:54:56.716Z,17.70
2022-09-08T13:57:32.023Z,17.70
2022-09-08T14:00:19.027Z,17.70
2022-09-08T14:02:58.095Z,17.90
2022-09-08T14:05:32.533Z,17.90
2022-09-08T14:08:32.720Z,18.00
2022-09-08T14:11:25.094Z,18.10
2022-09-08T14:14:09.643Z,18.00
2022-09-08T14:16:37.386Z,18.00
2022-09-08T14:19:12.553Z,18.10
2022-09-08T14:21:48.430Z,18.10
2022-09-08T14:24:59.723Z,18.20
2022-09-08T14:27:48.973Z,18.00
2022-09-08T14:30:58.407Z,18.00
2022-09-08T14:33:55.565Z,18.30
2022-09-08T14:36:44.837Z,18.30
2022-09-08T14:39:21.653Z,18.30
2022-09-08T14:41:54.423Z,18.20
2022-09-08T14:44:42.478Z,18.00
2022-09-08T14:47:23.473Z,17.90
2022-09-08T14:50:16.955Z,17.80
2022-09-08T14:52:49.290Z,17.70
2022-09-08T14:55:38.644Z,17.70
2022-09-08T14:58:26.824Z,17.70
2022-09-08T15:00:59.829Z,17.60
2022-09-08T15:03:31.583Z,17.60
2022-09-08T15:05:59.153Z,17.60
2022-09-08T15:08:32.563Z,17.50
2022-09-08T15:11:08.754Z,17.50
2022-09-08T15:13:39.944Z,17.40
2022-09-08T15:16:21.630Z,17.30
2022-09-08T15:19:26.503Z,17.40
2022-09-08T15:21:57.238Z,17.30
2022-09-08T15:24:53.104Z,17.30
2022-09-08T15:27:28.233Z,17.30
2022-09-08T15:30:15.670Z,17.30
2022-09-08T15:33:02.153Z,17.20
2022-09-08T15:35:49.408Z,17.20
2022-09-08T15:38:37.798Z,17.20
2022-09-08T15:41:11.960Z,17.30
2022-09-08T15:44:07.104Z,17.30
2022-09-08T15:47:06.413Z,17.20
2022-09-08T15:50:04.384Z,17.30
2022-09-08T15:52:40.180Z,17.20
2022-09-08T15:55:32.230Z,17.10
2022-09-08T15:58:33.424Z,17.10
2022-09-08T16:01:07.492Z,17.20
2022-09-08T16:04:01.501Z,17.20
2022-09-08T16:06:57.435Z,17.10
2022-09-08T16:09:28.440Z,17.10
2022-09-08T16:12:11.704Z,17.10
2022-09-08T16:15:01.379Z,17.00
2022-09-08T16:17:33.498Z,16.90
2022-09-08T16:20:24.939Z,16.80
2022-09-08T16:22:55.693Z,16.70
2022-09-08T16:25:48.495Z,16.70
2022-09-08T16:28:41.594Z,16.70
2022-09-08T16:31:15.567Z,16.70
2022-09-08T16:34:07.169Z,16.70
2022-09-08T16:36:50.499Z,16.60
2022-09-08T16:39:24.088Z,16.40
2022-09-08T16:42:06.255Z,16.30
2022-09-08T16:44:53.668Z,16.20
2022-09-08T16:48:00.033Z,16.20
2022-09-08T16:50:37.434Z,16.10
2022-09-08T16:53:45.475Z,16.10
2022-09-08T16:56:42.025Z,16.10
2022-09-08T16:59:16.657Z,16.10
2022-09-08T17:01:50.621Z,16.00
2022-09-08T17:04:27.284Z,16.00
2022-09-08T17:07:05.756Z,16.00
2022-09-08T17:09:53.034Z,16.00
2022-09-08T17:12:43.603Z,16.00
2022-09-08T17:15:12.121Z,15.90
2022-09-08T17:17:42.264Z,15.90
2022-09-08T17:20:14.814Z,15.90
2022-09-08T17:22:47.994Z,15.90
2022-09-08T17:25:44.260Z,15.80
2022-09-08T17:28:17.886Z,15.80
2022-09-08T17:31:24.347Z,15.80
2022-09-08T17:34:11.914Z,15.70
2022-09-08T17:36:46.628Z,15.80
2022-09-08T17:39:45.544Z,15.80
2022-09-08T17:42:35.655Z,15.80
2022-09-08T17:45:20.974Z,15.70
2022-09-08T17:48:10.194Z,15.80
2022-09-08T17:51:04.576Z,15.80
2022-09-08T17:53:54.634Z,15.80
2022-09-08T17:56:47.066Z,15.80
2022-09-08T18:02:52.854Z,15.80
2022-09-08T18:05:23.731Z,15.80
2022-09-08T18:07:54.683Z,15.80
2022-09-08T18:10:42.701Z,15.70
2022-09-08T18:13:51.501Z,15.70
2022-09-08T18:16:31.313Z,15.70
2022-09-08T18:19:03.994Z,15.70
2022-09-08T18:21:54.924Z,15.60
2022-09-08T18:24:37.846Z,15.60
2022-09-08T18:27:42.950Z,15.60
2022-09-08T18:30:21.364Z,15.60
2022-09-08T18:33:14.305Z,15.60
2022-09-08T18:35:56.455Z,15.60
2022-09-08T18:38:37.104Z,15.50
2022-09-08T18:41:34.733Z,15.50
2022-09-08T18:44:29.993Z,15.50
2022-09-08T18:47:11.735Z,15.50
2022-09-08T18:49:50.867Z,15.50
2022-09-08T18:52:25.375Z,15.50
2022-09-08T18:55:14.259Z,15.40
2022-09-08T18:57:44.905Z,15.40
2022-09-08T19:00:21.212Z,15.40
2022-09-08T19:02:53.535Z,15.40
2022-09-08T19:05:26.633Z,15.40
2022-09-08T19:08:08.243Z,15.40
2022-09-08T19:10:43.183Z,15.40
2022-09-08T19:13:30.340Z,15.40
2022-09-08T19:16:08.218Z,15.40
2022-09-08T19:18:37.955Z,15.30
2022-09-08T19:21:08.000Z,15.30
2022-09-08T19:23:38.181Z,15.30
2022-09-08T19:26:32.503Z,15.30
2022-09-08T19:29:42.563Z,15.30
2022-09-08T19:32:40.394Z,15.30
2022-09-08T19:35:21.933Z,15.20
2022-09-08T19:37:51.194Z,15.30
2022-09-08T19:40:23.483Z,15.20
2022-09-08T19:43:02.093Z,15.20
2022-09-08T19:45:35.939Z,15.20
2022-09-08T19:48:16.574Z,15.20
2022-09-08T19:51:16.043Z,15.20
2022-09-08T19:53:49.343Z,15.20
2022-09-08T19:56:38.066Z,15.20
2022-09-08T19:59:21.253Z,15.10
2022-09-08T20:01:54.150Z,15.10
2022-09-08T20:04:25.318Z,15.00
2022-09-08T20:06:59.862Z,15.10
2022-09-08T20:09:35.914Z,15.00
2022-09-08T20:12:10.403Z,15.00
2022-09-08T20:14:57.894Z,15.00
2022-09-08T20:17:45.973Z,15.00
2022-09-08T20:20:27.858Z,15.00
2022-09-08T20:26:06.323Z,15.00
2022-09-08T20:29:03.753Z,15.00
2022-09-08T20:31:46.657Z,15.10
2022-09-08T20:34:41.753Z,15.00
2022-09-08T20:37:49.975Z,15.00
2022-09-08T20:40:24.623Z,15.00
2022-09-08T20:43:17.513Z,15.00
2022-09-08T20:45:55.803Z,15.00
2022-09-08T20:48:39.923Z,15.00
2022-09-08T20:51:13.011Z,15.00
2022-09-08T20:54:03.569Z,15.00
2022-09-08T20:56:50.083Z,15.00
2022-09-08T20:59:25.685Z,15.00
2022-09-08T21:02:12.598Z,15.00
2022-09-08T21:04:52.384Z,15.00
2022-09-08T21:07:32.551Z,15.00
2022-09-08T21:10:10.403Z,15.00
2022-09-08T21:13:01.900Z,15.00
2022-09-08T21:15:42.118Z,15.00
2022-09-08T21:18:50.193Z,15.10
2022-09-08T21:21:43.106Z,15.00
2022-09-08T21:24:30.098Z,15.00
2022-09-08T21:27:17.314Z,15.00
2022-09-08T21:30:32.303Z,15.10
2022-09-08T21:33:07.353Z,15.10
2022-09-08T21:35:42.183Z,15.10
2022-09-08T21:38:24.324Z,15.10
2022-09-08T21:40:55.063Z,15.10
2022-09-08T21:43:33.244Z,15.10
2022-09-08T21:46:23.881Z,15.00
2022-09-08T21:48:53.683Z,15.10
2022-09-08T21:51:49.493Z,15.10
2022-09-08T21:54:23.384Z,15.10
2022-09-08T21:57:03.383Z,15.10
2022-09-08T21:59:30.763Z,15.10
2022-09-08T22:02:02.676Z,15.10
2022-09-08T22:04:47.634Z,15.10
2022-09-08T22:07:27.497Z,15.10
2022-09-08T22:09:55.435Z,15.10
2022-09-08T22:12:31.006Z,15.00
2022-09-08T22:15:01.664Z,15.10
2022-09-08T22:17:50.021Z,15.10
2022-09-08T22:20:38.064Z,15.10
2022-09-08T22:23:22.194Z,15.00
2022-09-08T22:26:18.051Z,15.00
2022-09-08T22:28:48.163Z,15.00
2022-09-08T22:31:26.824Z,15.00
2022-09-08T22:34:31.977Z,15.00
2022-09-08T22:37:17.702Z,15.00
2022-09-08T22:40:04.766Z,15.00
2022-09-08T22:42:44.574Z,15.00
2022-09-08T22:45:21.111Z,15.00
2022-09-08T22:47:56.313Z,15.00
2022-09-08T22:50:46.803Z,15.00
2022-09-08T22:53:36.391Z,15.00
2022-09-08T22:56:30.544Z,15.00
2022-09-08T22:59:01.135Z,15.00
2022-09-08T23:01:34.362Z,15.00
2022-09-08T23:04:14.549Z,15.00
2022-09-08T23:06:48.014Z,15.00
2022-09-08T23:09:15.303Z,14.90
2022-09-08T23:11:50.253Z,14.90
2022-09-08T23:14:36.614Z,14.90
2022-09-08T23:17:31.815Z,14.90
2022-09-08T23:20:07.654Z,14.90
2022-09-08T23:23:10.984Z,14.80
2022-09-08T23:25:43.073Z,14.80
2022-09-08T23:28:12.875Z,14.80
2022-09-08T23:30:56.383Z,14.70
2022-09-08T23:33:28.913Z,14.70
2022-09-08T23:36:03.814Z,14.70
2022-09-08T23:38:33.045Z,14.70
2022-09-08T23:41:07.433Z,14.70
2022-09-08T23:43:42.774Z,14.70
2022-09-08T23:46:19.903Z,14.70
2022-09-08T23:48:53.723Z,14.70
2022-09-08T23:51:24.667Z,14.60
2022-09-08T23:53:57.512Z,14.60
2022-09-08T23:56:26.114Z,14.70
2022-09-08T23:58:54.023Z,14.60
